Terminal Aerodrome Forecast
Issued by NWS Indianapolis, IN

Home | Current Version | Previous Version | Text Only | Print | Product List | Glossary On
Versions: 1 2 3 4 5 6 7 8 9 10 11 12 13 14 15 16 17 18 19 20 21 22 23 24 25 26 27 28 29
000
FTUS43 KIND 222300
TAFIND
TAF
KIND 222320Z 2300/2406 32007KT P6SM SCT070 BKN250
     FM230200 05005KT P6SM BKN200
     FM230900 10005KT P6SM BKN150
     FM231500 15007KT P6SM SCT050 BKN120
     FM231800 19008KT P6SM SCT060 BKN100
     FM240100 13005KT P6SM BKN100=

USA.gov is the U.S. government's official web portal to all federal, state and local government web resources and services.